sensor_id;sensor_type;location;lat;lon;timestamp;P1;durP1;ratioP1;P2;durP2;ratioP2
4166;SDS011;2097;51.104;7.150;2023-02-13T00:00:28;60.00;;;2.70;;
4166;SDS011;2097;51.104;7.150;2023-02-13T00:02:54;59.57;;;2.67;;
4166;SDS011;2097;51.104;7.150;2023-02-13T00:05:21;59.87;;;2.70;;
4166;SDS011;2097;51.104;7.150;2023-02-13T00:07:48;60.07;;;2.90;;
4166;SDS011;2097;51.104;7.150;2023-02-13T00:10:15;60.03;;;2.90;;
4166;SDS011;2097;51.104;7.150;2023-02-13T00:12:44;60.17;;;2.80;;
4166;SDS011;2097;51.104;7.150;2023-02-13T00:15:10;59.77;;;2.73;;
4166;SDS011;2097;51.104;7.150;2023-02-13T00:17:37;59.67;;;2.80;;
4166;SDS011;2097;51.104;7.150;2023-02-13T00:20:04;59.87;;;2.80;;
4166;SDS011;2097;51.104;7.150;2023-02-13T00:22:34;59.90;;;2.90;;
4166;SDS011;2097;51.104;7.150;2023-02-13T00:25:01;59.77;;;2.80;;
4166;SDS011;2097;51.104;7.150;2023-02-13T00:27:28;59.97;;;2.80;;
4166;SDS011;2097;51.104;7.150;2023-02-13T00:29:57;59.97;;;2.83;;
4166;SDS011;2097;51.104;7.150;2023-02-13T00:32:23;59.93;;;2.83;;
4166;SDS011;2097;51.104;7.150;2023-02-13T00:34:50;59.70;;;2.87;;
4166;SDS011;2097;51.104;7.150;2023-02-13T00:37:17;59.73;;;2.60;;
4166;SDS011;2097;51.104;7.150;2023-02-13T00:39:44;59.70;;;2.67;;
4166;SDS011;2097;51.104;7.150;2023-02-13T00:42:11;59.73;;;2.63;;
4166;SDS011;2097;51.104;7.150;2023-02-13T00:44:37;60.10;;;2.57;;
4166;SDS011;2097;51.104;7.150;2023-02-13T00:47:05;59.97;;;2.70;;
4166;SDS011;2097;51.104;7.150;2023-02-13T00:49:32;59.70;;;2.63;;
4166;SDS011;2097;51.104;7.150;2023-02-13T00:51:59;59.80;;;2.63;;
4166;SDS011;2097;51.104;7.150;2023-02-13T00:54:26;59.70;;;2.40;;
4166;SDS011;2097;51.104;7.150;2023-02-13T00:56:52;59.77;;;2.70;;
4166;SDS011;2097;51.104;7.150;2023-02-13T00:59:19;59.73;;;2.67;;
4166;SDS011;2097;51.104;7.150;2023-02-13T01:01:46;59.90;;;2.77;;
4166;SDS011;2097;51.104;7.150;2023-02-13T01:04:14;59.73;;;2.63;;
4166;SDS011;2097;51.104;7.150;2023-02-13T01:06:41;59.83;;;2.53;;
4166;SDS011;2097;51.104;7.150;2023-02-13T01:09:08;59.63;;;2.57;;
4166;SDS011;2097;51.104;7.150;2023-02-13T01:11:35;59.87;;;2.67;;
4166;SDS011;2097;51.104;7.150;2023-02-13T01:14:02;59.67;;;2.50;;
4166;SDS011;2097;51.104;7.150;2023-02-13T01:16:29;59.97;;;2.60;;
4166;SDS011;2097;51.104;7.150;2023-02-13T01:18:56;59.57;;;2.60;;
4166;SDS011;2097;51.104;7.150;2023-02-13T01:21:24;59.87;;;2.70;;
4166;SDS011;2097;51.104;7.150;2023-02-13T01:23:51;59.77;;;2.53;;
4166;SDS011;2097;51.104;7.150;2023-02-13T01:26:18;59.60;;;2.50;;
4166;SDS011;2097;51.104;7.150;2023-02-13T01:28:45;59.60;;;2.53;;
4166;SDS011;2097;51.104;7.150;2023-02-13T01:31:12;59.47;;;2.20;;
4166;SDS011;2097;51.104;7.150;2023-02-13T01:33:39;59.47;;;2.50;;
4166;SDS011;2097;51.104;7.150;2023-02-13T01:36:07;59.73;;;2.60;;
4166;SDS011;2097;51.104;7.150;2023-02-13T01:38:36;59.53;;;2.47;;
4166;SDS011;2097;51.104;7.150;2023-02-13T01:41:03;59.70;;;2.43;;
4166;SDS011;2097;51.104;7.150;2023-02-13T01:43:47;59.70;;;2.50;;
4166;SDS011;2097;51.104;7.150;2023-02-13T01:46:18;59.57;;;2.50;;
4166;SDS011;2097;51.104;7.150;2023-02-13T01:48:48;59.50;;;2.30;;
4166;SDS011;2097;51.104;7.150;2023-02-13T01:51:19;59.43;;;2.30;;
4166;SDS011;2097;51.104;7.150;2023-02-13T01:53:54;59.47;;;2.50;;
4166;SDS011;2097;51.104;7.150;2023-02-13T01:56:24;59.40;;;2.13;;
4166;SDS011;2097;51.104;7.150;2023-02-13T01:58:55;59.67;;;2.50;;
4166;SDS011;2097;51.104;7.150;2023-02-13T02:01:24;59.53;;;2.33;;
4166;SDS011;2097;51.104;7.150;2023-02-13T02:03:53;59.67;;;2.47;;
4166;SDS011;2097;51.104;7.150;2023-02-13T02:06:24;59.57;;;2.30;;
4166;SDS011;2097;51.104;7.150;2023-02-13T02:08:55;59.57;;;2.20;;
4166;SDS011;2097;51.104;7.150;2023-02-13T02:11:29;59.17;;;2.40;;
4166;SDS011;2097;51.104;7.150;2023-02-13T02:14:10;59.67;;;2.47;;
4166;SDS011;2097;51.104;7.150;2023-02-13T02:16:37;59.70;;;2.37;;
4166;SDS011;2097;51.104;7.150;2023-02-13T02:19:04;59.83;;;2.60;;
4166;SDS011;2097;51.104;7.150;2023-02-13T02:21:52;59.77;;;2.47;;
4166;SDS011;2097;51.104;7.150;2023-02-13T02:24:50;59.70;;;2.37;;
4166;SDS011;2097;51.104;7.150;2023-02-13T02:33:40;59.73;;;2.70;;
4166;SDS011;2097;51.104;7.150;2023-02-13T02:36:20;59.77;;;2.67;;
4166;SDS011;2097;51.104;7.150;2023-02-13T02:38:59;59.70;;;2.53;;
4166;SDS011;2097;51.104;7.150;2023-02-13T02:41:35;59.97;;;2.50;;
4166;SDS011;2097;51.104;7.150;2023-02-13T02:44:24;59.50;;;2.30;;
4166;SDS011;2097;51.104;7.150;2023-02-13T02:47:01;60.07;;;2.70;;
4166;SDS011;2097;51.104;7.150;2023-02-13T02:49:54;59.73;;;2.47;;
4166;SDS011;2097;51.104;7.150;2023-02-13T02:52:32;59.37;;;2.37;;
4166;SDS011;2097;51.104;7.150;2023-02-13T02:55:09;59.50;;;2.20;;
4166;SDS011;2097;51.104;7.150;2023-02-13T02:57:44;59.80;;;2.60;;
4166;SDS011;2097;51.104;7.150;2023-02-13T03:00:31;59.77;;;2.60;;
4166;SDS011;2097;51.104;7.150;2023-02-13T03:03:20;59.83;;;2.60;;
4166;SDS011;2097;51.104;7.150;2023-02-13T03:06:08;59.97;;;2.60;;
4166;SDS011;2097;51.104;7.150;2023-02-13T03:08:41;59.67;;;2.70;;
4166;SDS011;2097;51.104;7.150;2023-02-13T03:11:28;59.67;;;2.50;;
4166;SDS011;2097;51.104;7.150;2023-02-13T03:14:12;59.50;;;2.43;;
4166;SDS011;2097;51.104;7.150;2023-02-13T03:16:45;59.57;;;2.47;;
4166;SDS011;2097;51.104;7.150;2023-02-13T03:19:32;59.67;;;2.50;;
4166;SDS011;2097;51.104;7.150;2023-02-13T03:22:29;59.40;;;2.40;;
4166;SDS011;2097;51.104;7.150;2023-02-13T03:25:04;59.77;;;2.33;;
4166;SDS011;2097;51.104;7.150;2023-02-13T03:27:39;59.93;;;2.57;;
4166;SDS011;2097;51.104;7.150;2023-02-13T03:30:30;59.77;;;2.40;;
4166;SDS011;2097;51.104;7.150;2023-02-13T03:33:08;59.70;;;2.60;;
4166;SDS011;2097;51.104;7.150;2023-02-13T03:35:56;59.70;;;2.50;;
4166;SDS011;2097;51.104;7.150;2023-02-13T03:38:51;59.87;;;2.67;;
4166;SDS011;2097;51.104;7.150;2023-02-13T03:41:24;59.67;;;2.43;;
4166;SDS011;2097;51.104;7.150;2023-02-13T03:43:59;59.90;;;2.57;;
4166;SDS011;2097;51.104;7.150;2023-02-13T03:46:33;59.53;;;2.40;;
4166;SDS011;2097;51.104;7.150;2023-02-13T03:49:03;59.67;;;2.43;;
4166;SDS011;2097;51.104;7.150;2023-02-13T03:51:51;59.67;;;2.67;;
4166;SDS011;2097;51.104;7.150;2023-02-13T03:54:24;59.87;;;2.60;;
4166;SDS011;2097;51.104;7.150;2023-02-13T03:57:11;59.83;;;2.63;;
4166;SDS011;2097;51.104;7.150;2023-02-13T04:00:01;59.67;;;2.80;;
4166;SDS011;2097;51.104;7.150;2023-02-13T04:02:31;59.57;;;2.23;;
4166;SDS011;2097;51.104;7.150;2023-02-13T04:05:03;59.90;;;2.60;;
4166;SDS011;2097;51.104;7.150;2023-02-13T04:07:36;60.03;;;2.77;;
4166;SDS011;2097;51.104;7.150;2023-02-13T04:10:04;59.57;;;2.53;;
4166;SDS011;2097;51.104;7.150;2023-02-13T04:12:35;59.77;;;2.50;;
4166;SDS011;2097;51.104;7.150;2023-02-13T04:15:07;59.80;;;2.40;;
4166;SDS011;2097;51.104;7.150;2023-02-13T04:17:40;59.90;;;2.60;;
4166;SDS011;2097;51.104;7.150;2023-02-13T04:20:11;60.07;;;2.97;;
4166;SDS011;2097;51.104;7.150;2023-02-13T04:22:41;59.80;;;2.73;;
4166;SDS011;2097;51.104;7.150;2023-02-13T04:25:11;59.80;;;2.73;;
4166;SDS011;2097;51.104;7.150;2023-02-13T04:27:39;59.97;;;2.90;;
4166;SDS011;2097;51.104;7.150;2023-02-13T04:30:06;60.10;;;2.77;;
4166;SDS011;2097;51.104;7.150;2023-02-13T04:32:34;59.40;;;2.23;;
4166;SDS011;2097;51.104;7.150;2023-02-13T04:35:01;59.90;;;2.67;;
4166;SDS011;2097;51.104;7.150;2023-02-13T04:37:28;59.90;;;2.43;;
4166;SDS011;2097;51.104;7.150;2023-02-13T04:39:55;60.10;;;2.70;;
4166;SDS011;2097;51.104;7.150;2023-02-13T04:42:23;59.80;;;2.50;;
4166;SDS011;2097;51.104;7.150;2023-02-13T04:44:50;59.80;;;2.53;;
4166;SDS011;2097;51.104;7.150;2023-02-13T04:47:17;59.70;;;2.53;;
4166;SDS011;2097;51.104;7.150;2023-02-13T04:49:44;59.97;;;2.63;;
4166;SDS011;2097;51.104;7.150;2023-02-13T04:52:12;59.97;;;2.87;;
4166;SDS011;2097;51.104;7.150;2023-02-13T04:54:40;60.07;;;3.00;;
4166;SDS011;2097;51.104;7.150;2023-02-13T04:57:08;59.40;;;2.13;;
4166;SDS011;2097;51.104;7.150;2023-02-13T04:59:36;59.77;;;2.80;;
4166;SDS011;2097;51.104;7.150;2023-02-13T05:02:03;59.57;;;2.50;;
4166;SDS011;2097;51.104;7.150;2023-02-13T05:04:30;59.67;;;2.50;;
4166;SDS011;2097;51.104;7.150;2023-02-13T05:06:57;59.87;;;2.57;;
4166;SDS011;2097;51.104;7.150;2023-02-13T05:09:24;59.30;;;2.23;;
4166;SDS011;2097;51.104;7.150;2023-02-13T05:11:51;59.47;;;2.30;;
4166;SDS011;2097;51.104;7.150;2023-02-13T05:14:18;59.77;;;2.80;;
4166;SDS011;2097;51.104;7.150;2023-02-13T05:16:46;59.67;;;2.67;;
4166;SDS011;2097;51.104;7.150;2023-02-13T05:19:14;59.87;;;2.80;;
4166;SDS011;2097;51.104;7.150;2023-02-13T05:21:41;59.80;;;2.83;;
4166;SDS011;2097;51.104;7.150;2023-02-13T05:24:25;59.57;;;2.43;;
4166;SDS011;2097;51.104;7.150;2023-02-13T05:26:52;59.73;;;3.20;;
4166;SDS011;2097;51.104;7.150;2023-02-13T05:29:19;59.53;;;2.40;;
4166;SDS011;2097;51.104;7.150;2023-02-13T05:31:48;59.73;;;2.70;;
4166;SDS011;2097;51.104;7.150;2023-02-13T05:34:17;59.87;;;2.57;;
4166;SDS011;2097;51.104;7.150;2023-02-13T05:36:44;59.47;;;2.60;;
4166;SDS011;2097;51.104;7.150;2023-02-13T05:39:13;59.47;;;2.70;;
4166;SDS011;2097;51.104;7.150;2023-02-13T05:41:41;59.90;;;3.00;;
4166;SDS011;2097;51.104;7.150;2023-02-13T05:44:08;59.43;;;2.43;;
4166;SDS011;2097;51.104;7.150;2023-02-13T05:46:35;59.77;;;2.70;;
4166;SDS011;2097;51.104;7.150;2023-02-13T05:49:05;59.73;;;2.80;;
4166;SDS011;2097;51.104;7.150;2023-02-13T05:51:32;59.60;;;2.60;;
4166;SDS011;2097;51.104;7.150;2023-02-13T05:53:59;59.27;;;2.63;;
4166;SDS011;2097;51.104;7.150;2023-02-13T05:56:26;59.57;;;2.60;;
4166;SDS011;2097;51.104;7.150;2023-02-13T05:58:53;59.00;;;2.33;;
4166;SDS011;2097;51.104;7.150;2023-02-13T06:01:21;59.43;;;2.60;;
4166;SDS011;2097;51.104;7.150;2023-02-13T06:03:49;59.37;;;2.33;;
4166;SDS011;2097;51.104;7.150;2023-02-13T06:06:17;59.47;;;2.30;;
4166;SDS011;2097;51.104;7.150;2023-02-13T06:08:45;59.30;;;2.57;;
4166;SDS011;2097;51.104;7.150;2023-02-13T06:11:12;59.50;;;2.60;;
4166;SDS011;2097;51.104;7.150;2023-02-13T06:13:39;59.57;;;2.63;;
4166;SDS011;2097;51.104;7.150;2023-02-13T06:16:06;59.57;;;2.27;;
4166;SDS011;2097;51.104;7.150;2023-02-13T06:18:33;59.57;;;2.60;;
4166;SDS011;2097;51.104;7.150;2023-02-13T06:21:00;59.50;;;2.47;;
4166;SDS011;2097;51.104;7.150;2023-02-13T06:23:28;59.57;;;2.37;;
4166;SDS011;2097;51.104;7.150;2023-02-13T06:25:56;59.60;;;2.50;;
4166;SDS011;2097;51.104;7.150;2023-02-13T06:28:26;59.53;;;2.50;;
4166;SDS011;2097;51.104;7.150;2023-02-13T06:30:53;59.67;;;2.60;;
4166;SDS011;2097;51.104;7.150;2023-02-13T06:33:20;59.60;;;2.40;;
4166;SDS011;2097;51.104;7.150;2023-02-13T06:35:47;59.73;;;2.43;;
4166;SDS011;2097;51.104;7.150;2023-02-13T06:38:13;59.50;;;2.30;;
4166;SDS011;2097;51.104;7.150;2023-02-13T06:40:44;59.97;;;2.47;;
4166;SDS011;2097;51.104;7.150;2023-02-13T06:43:11;59.77;;;2.57;;
4166;SDS011;2097;51.104;7.150;2023-02-13T06:45:38;59.43;;;2.50;;
4166;SDS011;2097;51.104;7.150;2023-02-13T06:48:05;59.67;;;2.40;;
4166;SDS011;2097;51.104;7.150;2023-02-13T06:50:32;59.80;;;2.80;;
4166;SDS011;2097;51.104;7.150;2023-02-13T06:52:59;59.70;;;2.50;;
4166;SDS011;2097;51.104;7.150;2023-02-13T06:55:27;59.77;;;2.60;;
4166;SDS011;2097;51.104;7.150;2023-02-13T06:57:55;59.80;;;2.70;;
4166;SDS011;2097;51.104;7.150;2023-02-13T07:00:22;59.60;;;2.67;;
4166;SDS011;2097;51.104;7.150;2023-02-13T07:02:49;59.57;;;2.60;;
4166;SDS011;2097;51.104;7.150;2023-02-13T07:05:16;59.83;;;2.40;;
4166;SDS011;2097;51.104;7.150;2023-02-13T07:07:43;59.47;;;2.50;;
4166;SDS011;2097;51.104;7.150;2023-02-13T07:10:11;59.67;;;2.63;;
4166;SDS011;2097;51.104;7.150;2023-02-13T07:12:39;59.47;;;2.50;;
4166;SDS011;2097;51.104;7.150;2023-02-13T07:15:08;59.57;;;2.50;;
4166;SDS011;2097;51.104;7.150;2023-02-13T07:17:35;59.80;;;2.57;;
4166;SDS011;2097;51.104;7.150;2023-02-13T07:20:02;59.83;;;2.80;;
4166;SDS011;2097;51.104;7.150;2023-02-13T07:22:30;59.63;;;2.37;;
4166;SDS011;2097;51.104;7.150;2023-02-13T07:24:57;59.67;;;2.60;;
4166;SDS011;2097;51.104;7.150;2023-02-13T07:27:24;59.57;;;2.50;;
4166;SDS011;2097;51.104;7.150;2023-02-13T07:29:53;59.77;;;2.50;;
4166;SDS011;2097;51.104;7.150;2023-02-13T07:32:22;59.57;;;2.50;;
4166;SDS011;2097;51.104;7.150;2023-02-13T07:34:49;59.57;;;2.40;;
4166;SDS011;2097;51.104;7.150;2023-02-13T07:37:16;59.73;;;2.57;;
4166;SDS011;2097;51.104;7.150;2023-02-13T07:39:42;59.67;;;2.43;;
4166;SDS011;2097;51.104;7.150;2023-02-13T07:42:09;59.77;;;2.80;;
4166;SDS011;2097;51.104;7.150;2023-02-13T07:44:36;59.77;;;2.70;;
4166;SDS011;2097;51.104;7.150;2023-02-13T07:47:03;59.60;;;2.77;;
4166;SDS011;2097;51.104;7.150;2023-02-13T07:49:31;59.47;;;2.47;;
4166;SDS011;2097;51.104;7.150;2023-02-13T07:51:58;59.60;;;2.43;;
4166;SDS011;2097;51.104;7.150;2023-02-13T07:54:25;59.27;;;2.50;;
4166;SDS011;2097;51.104;7.150;2023-02-13T07:56:52;59.53;;;2.27;;
4166;SDS011;2097;51.104;7.150;2023-02-13T07:59:19;59.30;;;2.17;;
4166;SDS011;2097;51.104;7.150;2023-02-13T08:01:45;59.57;;;2.33;;
4166;SDS011;2097;51.104;7.150;2023-02-13T08:04:12;59.47;;;2.20;;
4166;SDS011;2097;51.104;7.150;2023-02-13T08:06:40;59.30;;;2.43;;
4166;SDS011;2097;51.104;7.150;2023-02-13T08:09:09;59.70;;;2.40;;
4166;SDS011;2097;51.104;7.150;2023-02-13T08:12:01;59.27;;;2.40;;
4166;SDS011;2097;51.104;7.150;2023-02-13T08:14:29;59.67;;;2.67;;
4166;SDS011;2097;51.104;7.150;2023-02-13T08:16:56;59.47;;;2.30;;
4166;SDS011;2097;51.104;7.150;2023-02-13T08:19:25;59.67;;;2.57;;
4166;SDS011;2097;51.104;7.150;2023-02-13T08:21:53;59.57;;;2.30;;
4166;SDS011;2097;51.104;7.150;2023-02-13T08:24:20;59.47;;;2.50;;
4166;SDS011;2097;51.104;7.150;2023-02-13T08:26:47;59.47;;;2.37;;
4166;SDS011;2097;51.104;7.150;2023-02-13T08:29:14;59.70;;;2.67;;
4166;SDS011;2097;51.104;7.150;2023-02-13T08:31:41;59.47;;;2.27;;
4166;SDS011;2097;51.104;7.150;2023-02-13T08:34:07;59.13;;;2.33;;
4166;SDS011;2097;51.104;7.150;2023-02-13T08:36:35;59.67;;;2.47;;
4166;SDS011;2097;51.104;7.150;2023-02-13T08:39:03;59.57;;;2.40;;
4166;SDS011;2097;51.104;7.150;2023-02-13T08:41:30;59.43;;;2.40;;
4166;SDS011;2097;51.104;7.150;2023-02-13T08:43:57;59.60;;;2.63;;
4166;SDS011;2097;51.104;7.150;2023-02-13T08:46:24;59.37;;;2.27;;
4166;SDS011;2097;51.104;7.150;2023-02-13T08:48:51;59.73;;;2.50;;
4166;SDS011;2097;51.104;7.150;2023-02-13T08:51:17;59.67;;;2.30;;
4166;SDS011;2097;51.104;7.150;2023-02-13T08:53:47;59.53;;;2.20;;
4166;SDS011;2097;51.104;7.150;2023-02-13T08:56:15;59.57;;;2.40;;
4166;SDS011;2097;51.104;7.150;2023-02-13T08:58:42;59.50;;;2.20;;
4166;SDS011;2097;51.104;7.150;2023-02-13T09:01:09;59.43;;;2.30;;
4166;SDS011;2097;51.104;7.150;2023-02-13T09:03:36;59.47;;;2.40;;
4166;SDS011;2097;51.104;7.150;2023-02-13T09:06:03;59.70;;;2.63;;
4166;SDS011;2097;51.104;7.150;2023-02-13T09:08:30;59.67;;;2.90;;
4166;SDS011;2097;51.104;7.150;2023-02-13T09:10:58;59.77;;;2.97;;
4166;SDS011;2097;51.104;7.150;2023-02-13T09:13:28;59.90;;;3.10;;
4166;SDS011;2097;51.104;7.150;2023-02-13T09:15:57;59.60;;;2.40;;
4166;SDS011;2097;51.104;7.150;2023-02-13T09:18:25;59.67;;;2.80;;
4166;SDS011;2097;51.104;7.150;2023-02-13T09:20:56;59.77;;;2.53;;
4166;SDS011;2097;51.104;7.150;2023-02-13T09:23:25;59.67;;;2.43;;
4166;SDS011;2097;51.104;7.150;2023-02-13T09:25:52;59.70;;;2.50;;
4166;SDS011;2097;51.104;7.150;2023-02-13T09:28:18;59.70;;;2.63;;
4166;SDS011;2097;51.104;7.150;2023-02-13T09:30:47;59.87;;;2.83;;
4166;SDS011;2097;51.104;7.150;2023-02-13T09:33:14;59.93;;;2.90;;
4166;SDS011;2097;51.104;7.150;2023-02-13T09:35:41;60.20;;;3.10;;
4166;SDS011;2097;51.104;7.150;2023-02-13T09:38:09;60.07;;;2.93;;
4166;SDS011;2097;51.104;7.150;2023-02-13T09:40:36;59.77;;;2.70;;
4166;SDS011;2097;51.104;7.150;2023-02-13T09:43:11;60.07;;;2.57;;
4166;SDS011;2097;51.104;7.150;2023-02-13T09:45:42;59.83;;;2.70;;
4166;SDS011;2097;51.104;7.150;2023-02-13T09:48:21;59.77;;;2.67;;
4166;SDS011;2097;51.104;7.150;2023-02-13T09:50:53;60.00;;;2.70;;
4166;SDS011;2097;51.104;7.150;2023-02-13T09:53:21;59.87;;;2.80;;
4166;SDS011;2097;51.104;7.150;2023-02-13T09:55:51;59.70;;;2.70;;
4166;SDS011;2097;51.104;7.150;2023-02-13T09:58:29;60.10;;;2.80;;
4166;SDS011;2097;51.104;7.150;2023-02-13T10:01:05;59.77;;;2.57;;
4166;SDS011;2097;51.104;7.150;2023-02-13T10:03:52;59.63;;;2.70;;
4166;SDS011;2097;51.104;7.150;2023-02-13T10:06:40;59.63;;;2.30;;
4166;SDS011;2097;51.104;7.150;2023-02-13T10:09:16;59.67;;;2.30;;
4166;SDS011;2097;51.104;7.150;2023-02-13T10:14:51;59.57;;;2.67;;
4166;SDS011;2097;51.104;7.150;2023-02-13T10:17:29;59.87;;;2.47;;
4166;SDS011;2097;51.104;7.150;2023-02-13T10:20:02;59.83;;;2.70;;
4166;SDS011;2097;51.104;7.150;2023-02-13T10:22:33;59.97;;;2.40;;
4166;SDS011;2097;51.104;7.150;2023-02-13T10:25:07;59.90;;;2.37;;
4166;SDS011;2097;51.104;7.150;2023-02-13T10:27:42;59.87;;;2.47;;
4166;SDS011;2097;51.104;7.150;2023-02-13T10:30:14;59.57;;;2.50;;
4166;SDS011;2097;51.104;7.150;2023-02-13T10:32:50;60.23;;;2.70;;
4166;SDS011;2097;51.104;7.150;2023-02-13T10:35:37;60.10;;;2.73;;
4166;SDS011;2097;51.104;7.150;2023-02-13T10:38:10;59.83;;;2.00;;
4166;SDS011;2097;51.104;7.150;2023-02-13T10:40:42;59.87;;;2.37;;
4166;SDS011;2097;51.104;7.150;2023-02-13T10:43:18;59.87;;;2.33;;
4166;SDS011;2097;51.104;7.150;2023-02-13T10:45:57;60.07;;;2.60;;
4166;SDS011;2097;51.104;7.150;2023-02-13T10:48:38;59.60;;;2.37;;
4166;SDS011;2097;51.104;7.150;2023-02-13T10:51:20;59.63;;;2.33;;
4166;SDS011;2097;51.104;7.150;2023-02-13T10:53:58;59.87;;;2.73;;
4166;SDS011;2097;51.104;7.150;2023-02-13T10:56:42;59.73;;;2.40;;
4166;SDS011;2097;51.104;7.150;2023-02-13T10:59:28;60.07;;;2.60;;
4166;SDS011;2097;51.104;7.150;2023-02-13T11:02:08;60.27;;;2.70;;
4166;SDS011;2097;51.104;7.150;2023-02-13T11:04:46;59.73;;;2.87;;
4166;SDS011;2097;51.104;7.150;2023-02-13T11:07:17;60.17;;;2.77;;
4166;SDS011;2097;51.104;7.150;2023-02-13T11:09:46;59.77;;;2.33;;
4166;SDS011;2097;51.104;7.150;2023-02-13T11:12:22;59.90;;;2.67;;
4166;SDS011;2097;51.104;7.150;2023-02-13T11:14:53;60.07;;;2.57;;
4166;SDS011;2097;51.104;7.150;2023-02-13T11:17:21;59.03;;;2.20;;
4166;SDS011;2097;51.104;7.150;2023-02-13T11:19:50;59.47;;;2.50;;
4166;SDS011;2097;51.104;7.150;2023-02-13T11:22:27;59.50;;;2.57;;
4166;SDS011;2097;51.104;7.150;2023-02-13T11:24:58;60.40;;;2.90;;
4166;SDS011;2097;51.104;7.150;2023-02-13T11:27:29;60.23;;;2.93;;
4166;SDS011;2097;51.104;7.150;2023-02-13T11:29:59;59.40;;;2.70;;
4166;SDS011;2097;51.104;7.150;2023-02-13T11:32:28;59.77;;;2.40;;
4166;SDS011;2097;51.104;7.150;2023-02-13T11:34:55;60.10;;;3.17;;
4166;SDS011;2097;51.104;7.150;2023-02-13T11:37:27;59.90;;;2.77;;
4166;SDS011;2097;51.104;7.150;2023-02-13T11:39:56;59.80;;;2.90;;
4166;SDS011;2097;51.104;7.150;2023-02-13T11:42:28;59.77;;;2.10;;
4166;SDS011;2097;51.104;7.150;2023-02-13T11:45:00;59.50;;;2.20;;
4166;SDS011;2097;51.104;7.150;2023-02-13T11:47:32;60.03;;;2.53;;
4166;SDS011;2097;51.104;7.150;2023-02-13T11:50:02;60.07;;;2.40;;
4166;SDS011;2097;51.104;7.150;2023-02-13T11:52:33;59.50;;;2.33;;
4166;SDS011;2097;51.104;7.150;2023-02-13T11:55:02;59.47;;;1.87;;
4166;SDS011;2097;51.104;7.150;2023-02-13T11:57:32;59.67;;;2.47;;
4166;SDS011;2097;51.104;7.150;2023-02-13T12:00:00;59.63;;;2.40;;
4166;SDS011;2097;51.104;7.150;2023-02-13T12:02:46;59.97;;;2.30;;
4166;SDS011;2097;51.104;7.150;2023-02-13T12:05:15;59.77;;;2.50;;
4166;SDS011;2097;51.104;7.150;2023-02-13T12:07:46;59.30;;;2.10;;
4166;SDS011;2097;51.104;7.150;2023-02-13T12:10:18;59.40;;;2.30;;
4166;SDS011;2097;51.104;7.150;2023-02-13T12:12:51;60.10;;;2.37;;
4166;SDS011;2097;51.104;7.150;2023-02-13T12:15:21;59.73;;;2.40;;
4166;SDS011;2097;51.104;7.150;2023-02-13T12:17:53;59.93;;;2.50;;
4166;SDS011;2097;51.104;7.150;2023-02-13T12:20:30;59.73;;;2.50;;
4166;SDS011;2097;51.104;7.150;2023-02-13T12:23:08;60.07;;;2.30;;
4166;SDS011;2097;51.104;7.150;2023-02-13T12:25:45;57.77;;;2.10;;
4166;SDS011;2097;51.104;7.150;2023-02-13T12:28:27;57.87;;;2.00;;
4166;SDS011;2097;51.104;7.150;2023-02-13T12:37:24;57.73;;;2.17;;
4166;SDS011;2097;51.104;7.150;2023-02-13T12:40:19;57.60;;;2.20;;
4166;SDS011;2097;51.104;7.150;2023-02-13T12:42:59;58.00;;;2.30;;
4166;SDS011;2097;51.104;7.150;2023-02-13T12:45:39;57.63;;;2.00;;
4166;SDS011;2097;51.104;7.150;2023-02-13T12:48:16;57.27;;;2.10;;
4166;SDS011;2097;51.104;7.150;2023-02-13T12:51:03;57.47;;;2.10;;
4166;SDS011;2097;51.104;7.150;2023-02-13T12:56:46;57.43;;;1.90;;
4166;SDS011;2097;51.104;7.150;2023-02-13T12:59:30;57.37;;;2.00;;
4166;SDS011;2097;51.104;7.150;2023-02-13T13:05:18;57.37;;;1.77;;
4166;SDS011;2097;51.104;7.150;2023-02-13T13:08:03;57.83;;;2.07;;
4166;SDS011;2097;51.104;7.150;2023-02-13T13:10:53;57.47;;;1.80;;
4166;SDS011;2097;51.104;7.150;2023-02-13T13:13:33;57.63;;;1.97;;
4166;SDS011;2097;51.104;7.150;2023-02-13T13:16:13;58.20;;;2.20;;
4166;SDS011;2097;51.104;7.150;2023-02-13T13:18:52;57.97;;;2.60;;
4166;SDS011;2097;51.104;7.150;2023-02-13T13:21:33;57.87;;;2.10;;
4166;SDS011;2097;51.104;7.150;2023-02-13T13:24:08;60.13;;;2.47;;
4166;SDS011;2097;51.104;7.150;2023-02-13T13:26:48;60.07;;;2.90;;
4166;SDS011;2097;51.104;7.150;2023-02-13T13:29:20;60.17;;;2.87;;
4166;SDS011;2097;51.104;7.150;2023-02-13T13:31:51;60.37;;;2.80;;
4166;SDS011;2097;51.104;7.150;2023-02-13T13:34:22;60.33;;;3.00;;
4166;SDS011;2097;51.104;7.150;2023-02-13T13:36:52;60.30;;;2.30;;
4166;SDS011;2097;51.104;7.150;2023-02-13T13:39:29;61.57;;;2.60;;
4166;SDS011;2097;51.104;7.150;2023-02-13T13:42:08;60.07;;;2.47;;
4166;SDS011;2097;51.104;7.150;2023-02-13T13:44:51;60.10;;;2.07;;
4166;SDS011;2097;51.104;7.150;2023-02-13T13:47:38;60.33;;;2.50;;
4166;SDS011;2097;51.104;7.150;2023-02-13T13:50:19;60.27;;;2.53;;
4166;SDS011;2097;51.104;7.150;2023-02-13T13:56:01;60.83;;;2.67;;
4166;SDS011;2097;51.104;7.150;2023-02-13T13:58:37;60.10;;;2.30;;
4166;SDS011;2097;51.104;7.150;2023-02-13T14:01:18;60.13;;;2.60;;
4166;SDS011;2097;51.104;7.150;2023-02-13T14:03:49;60.40;;;2.53;;
4166;SDS011;2097;51.104;7.150;2023-02-13T14:06:18;60.37;;;2.57;;
4166;SDS011;2097;51.104;7.150;2023-02-13T14:08:53;60.37;;;2.67;;
4166;SDS011;2097;51.104;7.150;2023-02-13T14:11:37;60.30;;;2.63;;
4166;SDS011;2097;51.104;7.150;2023-02-13T14:17:52;60.57;;;2.70;;
4166;SDS011;2097;51.104;7.150;2023-02-13T14:20:20;60.37;;;2.67;;
4166;SDS011;2097;51.104;7.150;2023-02-13T14:23:06;60.70;;;2.70;;
4166;SDS011;2097;51.104;7.150;2023-02-13T14:25:40;60.37;;;2.80;;
4166;SDS011;2097;51.104;7.150;2023-02-13T14:28:14;60.30;;;2.47;;
4166;SDS011;2097;51.104;7.150;2023-02-13T14:30:47;60.07;;;2.50;;
4166;SDS011;2097;51.104;7.150;2023-02-13T14:33:24;59.93;;;2.27;;
4166;SDS011;2097;51.104;7.150;2023-02-13T14:35:58;60.07;;;2.40;;
4166;SDS011;2097;51.104;7.150;2023-02-13T14:38:27;60.27;;;2.70;;
4166;SDS011;2097;51.104;7.150;2023-02-13T14:40:55;59.87;;;2.50;;
4166;SDS011;2097;51.104;7.150;2023-02-13T14:43:30;60.07;;;2.40;;
4166;SDS011;2097;51.104;7.150;2023-02-13T14:46:08;59.80;;;2.33;;
4166;SDS011;2097;51.104;7.150;2023-02-13T14:48:56;60.20;;;2.30;;
4166;SDS011;2097;51.104;7.150;2023-02-13T14:51:29;60.23;;;2.47;;
4166;SDS011;2097;51.104;7.150;2023-02-13T14:54:02;60.07;;;2.37;;
4166;SDS011;2097;51.104;7.150;2023-02-13T14:56:32;60.37;;;2.70;;
4166;SDS011;2097;51.104;7.150;2023-02-13T14:59:00;60.37;;;2.50;;
4166;SDS011;2097;51.104;7.150;2023-02-13T15:01:40;60.17;;;2.40;;
4166;SDS011;2097;51.104;7.150;2023-02-13T15:04:14;60.33;;;2.50;;
4166;SDS011;2097;51.104;7.150;2023-02-13T15:06:45;60.00;;;2.50;;
4166;SDS011;2097;51.104;7.150;2023-02-13T15:09:16;60.50;;;2.47;;
4166;SDS011;2097;51.104;7.150;2023-02-13T15:11:49;60.07;;;2.50;;
4166;SDS011;2097;51.104;7.150;2023-02-13T15:14:23;59.70;;;2.40;;
4166;SDS011;2097;51.104;7.150;2023-02-13T15:16:59;60.13;;;2.20;;
4166;SDS011;2097;51.104;7.150;2023-02-13T15:19:31;60.37;;;2.30;;
4166;SDS011;2097;51.104;7.150;2023-02-13T15:22:01;60.00;;;2.50;;
4166;SDS011;2097;51.104;7.150;2023-02-13T15:24:37;60.23;;;2.40;;
4166;SDS011;2097;51.104;7.150;2023-02-13T15:27:15;60.17;;;2.27;;
4166;SDS011;2097;51.104;7.150;2023-02-13T15:29:58;60.00;;;2.50;;
4166;SDS011;2097;51.104;7.150;2023-02-13T15:32:31;60.37;;;2.80;;
4166;SDS011;2097;51.104;7.150;2023-02-13T15:35:06;60.07;;;2.47;;
4166;SDS011;2097;51.104;7.150;2023-02-13T15:37:46;60.30;;;2.67;;
4166;SDS011;2097;51.104;7.150;2023-02-13T15:40:14;60.27;;;2.90;;
4166;SDS011;2097;51.104;7.150;2023-02-13T15:42:42;60.07;;;2.67;;
4166;SDS011;2097;51.104;7.150;2023-02-13T15:45:14;60.17;;;2.80;;
4166;SDS011;2097;51.104;7.150;2023-02-13T15:47:43;60.33;;;2.30;;
4166;SDS011;2097;51.104;7.150;2023-02-13T15:52:49;60.40;;;2.70;;
4166;SDS011;2097;51.104;7.150;2023-02-13T15:55:17;60.43;;;2.90;;
4166;SDS011;2097;51.104;7.150;2023-02-13T15:57:46;60.00;;;3.07;;
4166;SDS011;2097;51.104;7.150;2023-02-13T16:00:16;60.10;;;2.47;;